createdAt,value
2019-04-23T00:00:21.651Z,5.05
2019-04-23T00:05:48.040Z,4.42
2019-04-23T00:11:17.102Z,7.85
2019-04-23T00:16:40.804Z,5.17
2019-04-23T00:22:11.290Z,4.35
2019-04-23T00:33:04.032Z,4.10
2019-04-23T00:43:43.314Z,3.98
2019-04-23T00:54:31.980Z,3.75
2019-04-23T01:05:18.708Z,2.80
2019-04-23T01:11:01.835Z,3.15
2019-04-23T01:16:22.858Z,3.27
2019-04-23T01:21:34.712Z,3.00
2019-04-23T01:27:51.389Z,3.50
2019-04-23T01:33:11.018Z,3.00
2019-04-23T01:43:53.559Z,2.60
2019-04-23T01:49:25.088Z,3.22
2019-04-23T01:54:48.391Z,3.45
2019-04-23T02:05:48.142Z,3.02
2019-04-23T02:16:24.684Z,3.00
2019-04-23T02:21:55.111Z,3.10
2019-04-23T02:27:19.071Z,3.50
2019-04-23T02:33:01.410Z,3.25
2019-04-23T02:38:27.820Z,3.58
2019-04-23T02:43:22.032Z,2.67
2019-04-23T02:49:01.627Z,3.72
2019-04-23T02:54:44.873Z,2.85
2019-04-23T03:00:05.734Z,4.50
2019-04-23T03:10:32.184Z,5.40
2019-04-23T03:22:09.692Z,6.37
2019-04-23T03:38:29.997Z,9.60
2019-04-23T03:43:46.366Z,7.27
2019-04-23T03:49:05.607Z,4.58
2019-04-23T04:05:32.856Z,13.85
2019-04-23T04:11:04.186Z,12.07
2019-04-23T04:21:52.553Z,8.55
2019-04-23T04:32:40.132Z,5.40
2019-04-23T04:38:16.437Z,5.17
2019-04-23T04:43:31.859Z,3.95
2019-04-23T04:48:58.882Z,6.45
2019-04-23T04:54:17.713Z,4.15
2019-04-23T04:59:48.036Z,6.90
2019-04-23T05:05:20.716Z,5.78
2019-04-23T05:10:34.624Z,7.95
2019-04-23T05:21:14.097Z,14.45
2019-04-23T05:26:27.503Z,34.00
2019-04-23T05:31:54.982Z,34.10
2019-04-23T05:37:27.777Z,45.55
2019-04-23T05:42:47.589Z,49.48
2019-04-23T05:48:13.349Z,45.63
2019-04-23T05:53:33.026Z,38.17
2019-04-23T05:58:57.782Z,20.75
2019-04-23T06:04:24.742Z,13.95
2019-04-23T06:09:50.417Z,6.95
2019-04-23T06:15:26.783Z,7.30
2019-04-23T06:20:35.052Z,5.28
2019-04-23T06:26:08.307Z,4.33
2019-04-23T06:31:22.833Z,4.28
2019-04-23T06:36:47.880Z,3.52
2019-04-23T06:42:05.957Z,4.25
2019-04-23T06:47:28.872Z,4.70
2019-04-23T06:52:53.209Z,3.50
2019-04-23T06:58:25.970Z,4.12
2019-04-23T07:03:48.660Z,4.83
2019-04-23T07:14:35.788Z,4.58
2019-04-23T07:20:06.778Z,6.55
2019-04-23T07:25:17.801Z,4.15
2019-04-23T07:30:39.947Z,5.55
2019-04-23T07:36:15.605Z,5.30
2019-04-23T07:47:47.434Z,4.70
2019-04-23T07:53:13.135Z,5.17
2019-04-23T07:58:28.609Z,5.25
2019-04-23T08:03:55.880Z,5.40
2019-04-23T08:09:24.533Z,4.47
2019-04-23T08:14:47.956Z,5.47
2019-04-23T08:20:09.536Z,7.03
2019-04-23T08:25:52.461Z,4.58
2019-04-23T08:31:14.171Z,7.70
2019-04-23T08:36:40.741Z,8.73
2019-04-23T08:42:21.654Z,4.30
2019-04-23T08:47:27.677Z,4.30
2019-04-23T08:52:58.613Z,5.60
2019-04-23T08:58:20.560Z,4.20
2019-04-23T09:09:08.900Z,4.28
2019-04-23T09:14:30.430Z,4.40
2019-04-23T09:20:13.304Z,4.87
2019-04-23T09:25:20.215Z,4.70
2019-04-23T09:30:38.829Z,4.90
2019-04-23T09:36:27.901Z,9.90
2019-04-23T09:41:53.645Z,4.35
2019-04-23T09:47:47.404Z,4.70
2019-04-23T09:58:22.440Z,4.90
2019-04-23T10:03:38.718Z,3.67
2019-04-23T10:08:53.557Z,4.05
2019-04-23T10:14:14.680Z,4.50
2019-04-23T10:19:36.949Z,4.20
2019-04-23T10:24:59.449Z,5.60
2019-04-23T10:30:21.863Z,4.17
2019-04-23T10:35:54.577Z,3.85
2019-04-23T10:41:07.464Z,3.95
2019-04-23T10:47:15.236Z,4.10
2019-04-23T10:52:36.402Z,4.20
2019-04-23T10:58:08.291Z,3.70
2019-04-23T11:09:11.407Z,6.45
2019-04-23T11:14:25.387Z,5.80
2019-04-23T11:20:06.901Z,4.22
2019-04-23T11:25:20.434Z,5.53
2019-04-23T11:36:19.900Z,5.92
2019-04-23T11:41:38.387Z,9.15
2019-04-23T11:46:54.135Z,4.33
2019-04-23T11:57:41.240Z,4.60
2019-04-23T12:03:02.662Z,4.08
2019-04-23T12:30:45.382Z,4.08
2019-04-23T12:36:28.375Z,5.62
2019-04-23T12:47:25.470Z,4.12
2019-04-23T12:52:45.177Z,4.53
2019-04-23T12:57:52.168Z,3.80
2019-04-23T13:03:25.224Z,5.35
2019-04-23T13:08:45.991Z,5.40
2019-04-23T13:14:12.618Z,6.80
2019-04-23T13:25:10.129Z,5.45
2019-04-23T13:30:40.586Z,5.85
2019-04-23T13:41:20.308Z,8.85
2019-04-23T13:46:55.855Z,9.33
2019-04-23T13:52:44.814Z,8.30
2019-04-23T14:03:04.473Z,4.90
2019-04-23T14:08:43.207Z,7.60
2019-04-23T14:14:08.338Z,6.10
2019-04-23T14:19:06.910Z,6.90
2019-04-23T14:24:45.268Z,6.40
2019-04-23T14:30:21.797Z,5.25
2019-04-23T14:35:33.313Z,4.20
2019-04-23T14:40:59.575Z,5.42
2019-04-23T14:51:46.403Z,3.35
2019-04-23T14:57:09.948Z,2.95
2019-04-23T15:02:37.302Z,4.03
2019-04-23T15:07:50.403Z,5.03
2019-04-23T15:13:21.333Z,6.95
2019-04-23T15:24:52.433Z,4.15
2019-04-23T15:29:48.156Z,3.67
2019-04-23T15:40:42.088Z,6.20
2019-04-23T15:46:12.440Z,5.33
2019-04-23T15:51:40.445Z,5.70
2019-04-23T15:57:01.196Z,6.83
2019-04-23T16:01:53.393Z,7.00
2019-04-23T16:07:32.555Z,10.58
2019-04-23T16:13:12.774Z,4.97
2019-04-23T16:24:05.956Z,5.17
2019-04-23T16:35:12.024Z,6.53
2019-04-23T16:40:28.350Z,6.67
2019-04-23T16:45:51.341Z,4.12
2019-04-23T16:51:25.245Z,9.23
2019-04-23T16:56:55.689Z,6.53
2019-04-23T17:02:12.036Z,8.78
2019-04-23T17:07:21.054Z,10.55
2019-04-23T17:12:54.757Z,7.28
2019-04-23T17:18:16.799Z,6.10
2019-04-23T17:29:05.804Z,6.53
2019-04-23T17:34:30.799Z,7.00
2019-04-23T17:40:03.578Z,7.42
2019-04-23T17:45:30.995Z,6.20
2019-04-23T17:50:52.826Z,5.37
2019-04-23T18:01:43.259Z,7.15
2019-04-23T18:07:05.246Z,5.20
2019-04-23T18:17:54.705Z,6.95
2019-04-23T18:23:14.830Z,7.28
2019-04-23T18:28:50.259Z,5.85
2019-04-23T18:34:16.344Z,6.50
2019-04-23T18:39:38.194Z,7.20
2019-04-23T18:45:03.669Z,5.78
2019-04-23T18:50:32.787Z,6.40
2019-04-23T19:01:12.570Z,9.33
2019-04-23T19:06:42.982Z,11.10
2019-04-23T19:18:06.247Z,10.05
2019-04-23T19:28:55.420Z,8.55
2019-04-23T19:34:30.046Z,7.85
2019-04-23T19:39:43.185Z,14.90
2019-04-23T19:45:12.695Z,9.58
2019-04-23T19:50:40.660Z,11.18
2019-04-23T19:56:08.722Z,6.90
2019-04-23T20:07:09.007Z,4.90
2019-04-23T20:12:25.349Z,6.80
2019-04-23T20:23:11.935Z,10.53
2019-04-23T20:39:45.824Z,10.48
2019-04-23T20:45:14.261Z,10.90
2019-04-23T20:56:17.653Z,10.88
2019-04-23T21:02:28.400Z,24.90
2019-04-23T21:07:54.254Z,10.85
2019-04-23T21:18:31.552Z,8.95
2019-04-23T21:29:03.889Z,13.65
2019-04-23T21:34:45.402Z,13.98
2019-04-23T21:40:28.549Z,14.80
2019-04-23T21:45:40.824Z,11.15
2019-04-23T21:50:59.864Z,10.63
2019-04-23T22:01:59.080Z,6.87
2019-04-23T22:07:07.112Z,6.30
2019-04-23T22:12:44.721Z,5.58
2019-04-23T22:18:16.134Z,5.00
2019-04-23T22:23:31.313Z,5.80
2019-04-23T22:28:59.544Z,5.20
2019-04-23T22:39:39.968Z,10.18
2019-04-23T23:01:29.778Z,6.75
2019-04-23T23:06:53.680Z,6.70
2019-04-23T23:12:02.308Z,10.43
2019-04-23T23:17:33.427Z,9.88
2019-04-23T23:33:40.507Z,5.58
2019-04-23T23:39:18.094Z,5.62
2019-04-23T23:50:00.865Z,7.08
2019-04-23T23:55:19.570Z,9.58
